createdAt,value
2024-03-12T00:01:42.436Z,10.21
2024-03-12T00:04:09.731Z,10.19
2024-03-12T00:06:38.429Z,10.15
2024-03-12T00:09:10.926Z,10.14
2024-03-12T00:11:38.679Z,10.12
2024-03-12T00:14:06.019Z,10.12
2024-03-12T00:16:35.484Z,10.12
2024-03-12T00:19:04.325Z,10.09
2024-03-12T00:21:31.795Z,10.05
2024-03-12T00:24:00.340Z,9.98
2024-03-12T00:26:29.647Z,9.95
2024-03-12T00:28:56.999Z,9.92
2024-03-12T00:31:24.122Z,9.91
2024-03-12T00:33:51.136Z,9.89
2024-03-12T00:36:18.297Z,9.84
2024-03-12T00:38:45.191Z,9.78
2024-03-12T00:41:12.236Z,9.75
2024-03-12T00:43:39.639Z,9.75
2024-03-12T00:46:07.062Z,9.73
2024-03-12T00:48:34.208Z,9.65
2024-03-12T00:51:01.629Z,9.60
2024-03-12T00:53:28.767Z,9.57
2024-03-12T00:55:55.785Z,9.58
2024-03-12T00:58:22.752Z,9.57
2024-03-12T01:00:51.065Z,9.51
2024-03-12T01:03:18.795Z,9.44
2024-03-12T01:05:45.863Z,9.41
2024-03-12T01:08:13.684Z,9.39
2024-03-12T01:10:40.999Z,9.39
2024-03-12T01:13:11.444Z,9.40
2024-03-12T01:15:41.293Z,9.37
2024-03-12T01:18:09.937Z,9.32
2024-03-12T01:20:37.645Z,9.29
2024-03-12T01:23:07.127Z,9.31
2024-03-12T01:25:38.674Z,9.32
2024-03-12T01:28:08.086Z,9.31
2024-03-12T01:30:36.561Z,9.27
2024-03-12T01:33:07.399Z,9.25
2024-03-12T01:35:40.511Z,9.28
2024-03-12T01:38:10.510Z,9.32
2024-03-12T01:40:38.633Z,9.35
2024-03-12T01:43:08.579Z,9.35
2024-03-12T01:45:36.683Z,9.35
2024-03-12T01:48:10.130Z,9.35
2024-03-12T01:50:41.144Z,9.38
2024-03-12T01:53:09.291Z,9.42
2024-03-12T01:55:45.185Z,9.46
2024-03-12T01:58:17.068Z,9.47
2024-03-12T02:00:46.258Z,9.48
2024-03-12T02:03:14.344Z,9.49
2024-03-12T02:05:42.927Z,9.46
2024-03-12T02:08:11.130Z,9.46
2024-03-12T02:10:38.696Z,9.45
2024-03-12T02:13:06.849Z,9.41
2024-03-12T02:15:35.662Z,9.36
2024-03-12T02:18:03.364Z,9.29
2024-03-12T02:20:30.357Z,9.25
2024-03-12T02:22:57.472Z,9.22
2024-03-12T02:25:25.040Z,9.19
2024-03-12T02:27:53.445Z,9.16
2024-03-12T02:30:21.200Z,9.11
2024-03-12T02:32:49.385Z,9.09
2024-03-12T02:35:18.417Z,9.06
2024-03-12T02:37:46.127Z,9.03
2024-03-12T02:40:15.214Z,9.01
2024-03-12T02:42:43.827Z,8.98
2024-03-12T02:45:16.719Z,8.97
2024-03-12T02:47:47.069Z,8.96
2024-03-12T02:50:15.421Z,8.94
2024-03-12T02:52:43.651Z,8.94
2024-03-12T02:55:11.235Z,8.92
2024-03-12T02:57:39.271Z,8.90
2024-03-12T03:00:13.685Z,8.90
2024-03-12T03:02:43.078Z,8.93
2024-03-12T03:05:12.064Z,8.95
2024-03-12T03:07:43.789Z,8.96
2024-03-12T03:10:12.853Z,8.95
2024-03-12T03:12:41.225Z,8.90
2024-03-12T03:15:13.228Z,8.88
2024-03-12T03:17:43.725Z,8.89
2024-03-12T03:20:16.474Z,8.86
2024-03-12T03:22:44.743Z,8.83
2024-03-12T03:25:15.813Z,8.81
2024-03-12T03:27:43.687Z,8.81
2024-03-12T03:30:14.500Z,8.78
2024-03-12T03:32:41.660Z,8.76
2024-03-12T03:35:08.910Z,8.74
2024-03-12T03:37:41.810Z,8.71
2024-03-12T03:40:11.825Z,8.70
2024-03-12T03:42:39.816Z,8.71
2024-03-12T03:45:07.178Z,8.71
2024-03-12T03:47:36.991Z,8.68
2024-03-12T03:50:09.642Z,8.65
2024-03-12T03:52:40.084Z,8.64
2024-03-12T03:55:08.407Z,8.63
2024-03-12T03:57:35.534Z,8.62
2024-03-12T04:00:14.308Z,8.61
2024-03-12T04:02:44.784Z,8.59
2024-03-12T04:05:12.969Z,8.58
2024-03-12T04:07:42.483Z,8.56
2024-03-12T04:10:13.116Z,8.53
2024-03-12T04:12:48.147Z,8.49
2024-03-12T04:15:16.073Z,8.45
2024-03-12T04:17:45.909Z,8.45
2024-03-12T04:20:13.502Z,8.47
2024-03-12T04:22:44.757Z,8.48
2024-03-12T04:25:17.490Z,8.47
2024-03-12T04:27:44.676Z,8.44
2024-03-12T04:30:12.780Z,8.45
2024-03-12T04:32:40.681Z,8.47
2024-03-12T04:35:14.057Z,8.49
2024-03-12T04:37:41.467Z,8.50
2024-03-12T04:40:09.680Z,8.50
2024-03-12T04:42:38.695Z,8.49
2024-03-12T04:45:08.337Z,8.47
2024-03-12T04:47:38.603Z,8.47
2024-03-12T04:50:05.904Z,8.49
2024-03-12T04:52:35.125Z,8.48
2024-03-12T04:55:02.992Z,8.44
2024-03-12T04:57:30.078Z,8.41
2024-03-12T04:59:57.798Z,8.39
2024-03-12T05:02:24.772Z,8.41
2024-03-12T05:04:54.341Z,8.40
2024-03-12T05:07:21.622Z,8.41
2024-03-12T05:09:48.544Z,8.38
2024-03-12T05:12:16.260Z,8.34
2024-03-12T05:14:43.106Z,8.33
2024-03-12T05:17:10.666Z,8.35
2024-03-12T05:19:37.905Z,8.35
2024-03-12T05:22:05.286Z,8.35
2024-03-12T05:24:35.389Z,8.32
2024-03-12T05:27:04.760Z,8.30
2024-03-12T05:29:43.584Z,8.26
2024-03-12T05:32:19.460Z,8.25
2024-03-12T05:34:54.186Z,8.24
2024-03-12T05:37:30.575Z,8.23
2024-03-12T05:40:16.576Z,8.20
2024-03-12T05:43:05.718Z,8.17
2024-03-12T05:45:58.517Z,8.15
2024-03-12T05:48:25.545Z,8.15
2024-03-12T05:50:52.746Z,8.13
2024-03-12T05:53:20.482Z,8.11
2024-03-12T05:55:47.538Z,8.10
2024-03-12T05:58:16.880Z,8.11
2024-03-12T06:00:46.607Z,8.14
2024-03-12T06:03:13.641Z,8.17
2024-03-12T06:05:42.599Z,8.18
2024-03-12T06:08:09.744Z,8.17
2024-03-12T06:10:37.798Z,8.13
2024-03-12T06:13:04.870Z,8.13
2024-03-12T06:15:32.520Z,8.14
2024-03-12T06:18:00.745Z,8.18
2024-03-12T06:20:29.862Z,8.17
2024-03-12T06:23:01.668Z,8.13
2024-03-12T06:25:29.240Z,8.10
2024-03-12T06:28:00.641Z,8.09
2024-03-12T06:30:27.783Z,8.10
2024-03-12T06:32:55.103Z,8.11
2024-03-12T06:35:22.104Z,8.13
2024-03-12T06:37:49.127Z,8.13
2024-03-12T06:40:18.640Z,8.10
2024-03-12T06:42:46.503Z,8.06
2024-03-12T06:45:13.977Z,8.04
2024-03-12T06:47:43.110Z,8.05
2024-03-12T06:50:11.244Z,8.04
2024-03-12T06:52:38.543Z,8.00
2024-03-12T06:55:17.013Z,7.98
2024-03-12T06:57:53.330Z,7.96
2024-03-12T07:00:28.071Z,7.99
2024-03-12T07:02:55.518Z,7.99
2024-03-12T07:05:24.353Z,7.97
2024-03-12T07:07:51.287Z,7.95
2024-03-12T07:10:20.026Z,7.92
2024-03-12T07:12:47.684Z,7.93
2024-03-12T07:15:15.227Z,7.95
2024-03-12T07:17:43.052Z,7.97
2024-03-12T07:20:13.824Z,7.98
2024-03-12T07:22:46.473Z,7.97
2024-03-12T07:25:15.138Z,7.98
2024-03-12T07:27:42.962Z,7.96
2024-03-12T07:30:11.783Z,7.97
2024-03-12T07:32:40.652Z,7.99
2024-03-12T07:35:08.003Z,8.02
2024-03-12T07:37:40.800Z,7.99
2024-03-12T07:40:17.738Z,7.97
2024-03-12T07:42:45.918Z,7.95
2024-03-12T07:45:16.039Z,7.97
2024-03-12T07:47:43.807Z,7.97
2024-03-12T07:50:15.280Z,7.98
2024-03-12T07:52:42.888Z,7.97
2024-03-12T07:55:11.276Z,7.96
2024-03-12T07:57:39.594Z,7.96
2024-03-12T08:00:17.971Z,7.96
2024-03-12T08:02:45.612Z,7.99
2024-03-12T08:05:14.292Z,8.03
2024-03-12T08:07:41.259Z,8.06
2024-03-12T08:10:11.248Z,8.08
2024-03-12T08:12:42.393Z,8.07
2024-03-12T08:15:14.501Z,8.08
2024-03-12T08:17:44.030Z,8.03
2024-03-12T08:20:14.812Z,8.00
2024-03-12T08:22:42.966Z,7.98
2024-03-12T08:25:13.191Z,7.98
2024-03-12T08:27:42.033Z,7.98
2024-03-12T08:30:09.912Z,7.95
2024-03-12T08:32:43.154Z,7.96
2024-03-12T08:35:12.163Z,7.99
2024-03-12T08:37:39.538Z,8.01
2024-03-12T08:40:08.776Z,8.02
2024-03-12T08:42:44.676Z,8.01
2024-03-12T08:45:20.529Z,8.00
2024-03-12T08:47:49.986Z,8.02
2024-03-12T08:50:18.443Z,8.05
2024-03-12T08:52:46.012Z,8.05
2024-03-12T08:55:13.205Z,8.04
2024-03-12T08:57:40.373Z,8.02
2024-03-12T09:00:12.728Z,8.05
2024-03-12T09:02:43.098Z,8.06
2024-03-12T09:05:11.053Z,8.08
2024-03-12T09:07:38.411Z,8.10
2024-03-12T09:10:13.077Z,8.11
2024-03-12T09:12:42.453Z,8.10
2024-03-12T09:15:10.949Z,8.09
2024-03-12T09:17:39.795Z,8.10
2024-03-12T09:20:11.512Z,8.11
2024-03-12T09:22:39.185Z,8.10
2024-03-12T09:25:07.337Z,8.09
2024-03-12T09:27:35.369Z,8.12
2024-03-12T09:30:04.575Z,8.17
2024-03-12T09:32:31.689Z,8.18
2024-03-12T09:34:59.447Z,8.18
2024-03-12T09:37:28.550Z,8.17
2024-03-12T09:39:55.601Z,8.17
2024-03-12T09:42:27.463Z,8.20
2024-03-12T09:44:54.828Z,8.24
2024-03-12T09:47:22.292Z,8.27
2024-03-12T09:49:50.439Z,8.28
2024-03-12T09:52:17.782Z,8.28
2024-03-12T09:54:46.195Z,8.29
2024-03-12T09:57:14.259Z,8.32
2024-03-12T09:59:42.343Z,8.34
2024-03-12T10:02:10.697Z,8.36
2024-03-12T10:04:38.072Z,8.38
2024-03-12T10:07:07.100Z,8.39
2024-03-12T10:09:34.504Z,8.42
2024-03-12T10:12:05.110Z,8.50
2024-03-12T10:14:35.322Z,8.58
2024-03-12T10:17:22.113Z,8.62
2024-03-12T10:19:52.001Z,8.65
2024-03-12T10:22:23.751Z,8.67
2024-03-12T10:24:51.156Z,8.71
2024-03-12T10:27:19.441Z,8.74
2024-03-12T10:29:46.394Z,8.78
2024-03-12T10:32:20.519Z,8.82
2024-03-12T10:34:48.511Z,8.86
2024-03-12T10:37:36.765Z,8.94
2024-03-12T10:40:21.107Z,9.00
2024-03-12T10:43:07.325Z,9.06
2024-03-12T10:45:36.486Z,9.08
2024-03-12T10:48:07.435Z,9.08
2024-03-12T10:50:35.604Z,9.11
2024-03-12T10:53:03.290Z,9.11
2024-03-12T10:55:34.430Z,9.10
2024-03-12T10:58:03.904Z,9.13
2024-03-12T11:00:31.776Z,9.20
2024-03-12T11:02:59.100Z,9.23
2024-03-12T11:05:28.620Z,9.28
2024-03-12T11:07:59.171Z,9.36
2024-03-12T11:10:31.795Z,9.45
2024-03-12T11:13:03.157Z,9.54
2024-03-12T11:15:32.965Z,9.63
2024-03-12T11:18:00.503Z,9.71
2024-03-12T11:20:29.082Z,9.75
2024-03-12T11:23:01.760Z,9.78
2024-03-12T11:25:40.897Z,9.84
2024-03-12T11:28:25.025Z,9.88
2024-03-12T11:30:58.138Z,9.83
2024-03-12T11:33:46.814Z,9.85
2024-03-12T11:36:47.689Z,9.87
2024-03-12T11:39:30.822Z,9.90
2024-03-12T11:42:01.854Z,9.90
2024-03-12T11:44:46.068Z,9.94
2024-03-12T11:47:31.708Z,9.98
2024-03-12T11:50:03.045Z,9.99
2024-03-12T11:52:33.572Z,9.96
2024-03-12T11:55:01.545Z,9.94
2024-03-12T11:57:33.403Z,9.94
2024-03-12T12:00:01.329Z,9.94
2024-03-12T12:02:28.547Z,9.89
2024-03-12T12:04:57.237Z,9.86
2024-03-12T12:07:29.422Z,9.87
2024-03-12T12:09:56.837Z,9.89
2024-03-12T12:12:24.037Z,9.91
2024-03-12T12:14:51.080Z,9.95
2024-03-12T12:17:32.346Z,9.99
2024-03-12T12:20:17.352Z,10.02
2024-03-12T12:22:48.773Z,10.07
2024-03-12T12:25:20.317Z,10.14
2024-03-12T12:27:48.262Z,10.19
2024-03-12T12:30:20.723Z,10.20
2024-03-12T12:32:50.635Z,10.19
2024-03-12T12:35:21.016Z,10.17
2024-03-12T12:37:50.221Z,10.18
2024-03-12T12:40:23.015Z,10.22
2024-03-12T12:42:51.742Z,10.26
2024-03-12T12:45:19.053Z,10.24
2024-03-12T12:47:50.624Z,10.20
2024-03-12T12:50:29.148Z,10.17
2024-03-12T12:53:01.032Z,10.14
2024-03-12T12:55:29.111Z,10.12
2024-03-12T12:58:04.026Z,10.12
2024-03-12T13:00:45.513Z,10.10
2024-03-12T13:03:17.531Z,10.07
2024-03-12T13:05:46.885Z,10.01
2024-03-12T13:08:28.502Z,9.95
2024-03-12T13:11:01.459Z,9.90
2024-03-12T13:13:29.532Z,9.89
2024-03-12T13:15:56.494Z,9.84
2024-03-12T13:18:23.488Z,9.79
2024-03-12T13:20:50.974Z,9.75
2024-03-12T13:23:18.396Z,9.71
2024-03-12T13:25:46.751Z,9.70
2024-03-12T13:28:16.790Z,9.70
2024-03-12T13:30:47.833Z,9.68
2024-03-12T13:33:15.374Z,9.68
2024-03-12T13:35:43.503Z,9.66
2024-03-12T13:38:15.651Z,9.65
2024-03-12T13:40:43.152Z,9.70
2024-03-12T13:43:12.672Z,9.73
2024-03-12T13:45:40.031Z,9.74
2024-03-12T13:48:08.260Z,9.75
2024-03-12T13:50:35.653Z,9.74
2024-03-12T13:53:04.611Z,9.74
2024-03-12T13:55:31.578Z,9.77
2024-03-12T13:57:58.797Z,9.78
2024-03-12T14:00:28.090Z,9.78
2024-03-12T14:02:55.572Z,9.78
2024-03-12T14:05:22.589Z,9.77
2024-03-12T14:07:49.581Z,9.76
2024-03-12T14:10:16.768Z,9.80
2024-03-12T14:12:43.745Z,9.85
2024-03-12T14:15:11.511Z,9.87
2024-03-12T14:17:39.419Z,9.89
2024-03-12T14:20:12.443Z,9.89
2024-03-12T14:22:45.204Z,9.89
2024-03-12T14:25:14.375Z,9.90
2024-03-12T14:27:41.891Z,9.92
2024-03-12T14:30:09.811Z,9.93
2024-03-12T14:32:38.316Z,9.93
2024-03-12T14:35:08.883Z,9.92
2024-03-12T14:37:36.550Z,9.90
2024-03-12T14:40:08.978Z,9.90
2024-03-12T14:42:36.166Z,9.94
2024-03-12T14:45:03.752Z,9.93
2024-03-12T14:47:30.958Z,9.93
2024-03-12T14:49:58.736Z,9.93
2024-03-12T14:52:26.915Z,9.92
2024-03-12T14:54:55.038Z,9.92
2024-03-12T14:57:22.638Z,9.90
2024-03-12T14:59:49.897Z,9.92
2024-03-12T15:02:17.041Z,9.93
2024-03-12T15:04:44.881Z,9.93
2024-03-12T15:07:12.182Z,9.92
2024-03-12T15:09:39.219Z,9.92
2024-03-12T15:12:09.111Z,9.91
2024-03-12T15:14:37.519Z,9.89
2024-03-12T15:17:05.121Z,9.88
2024-03-12T15:19:32.274Z,9.90
2024-03-12T15:22:00.781Z,9.90
2024-03-12T15:24:28.224Z,9.90
2024-03-12T15:26:57.274Z,9.89
2024-03-12T15:29:24.675Z,9.87
2024-03-12T15:31:51.575Z,9.86
2024-03-12T15:34:20.317Z,9.85
2024-03-12T15:36:50.874Z,9.87
2024-03-12T15:39:24.894Z,9.90
2024-03-12T15:41:52.732Z,9.91
2024-03-12T15:44:20.100Z,9.91
2024-03-12T15:46:48.684Z,9.90
2024-03-12T15:49:17.960Z,9.87
2024-03-12T15:51:46.429Z,9.86
2024-03-12T15:54:15.973Z,9.82
2024-03-12T15:56:45.705Z,9.80
2024-03-12T15:59:15.779Z,9.83
2024-03-12T16:01:47.244Z,9.83
2024-03-12T16:04:14.773Z,9.82
2024-03-12T16:06:43.258Z,9.81
2024-03-12T16:09:15.136Z,9.80
2024-03-12T16:11:42.136Z,9.79
2024-03-12T16:14:12.191Z,9.76
2024-03-12T16:16:40.880Z,9.77
2024-03-12T16:19:08.508Z,9.79
2024-03-12T16:21:35.694Z,9.79
2024-03-12T16:24:03.176Z,9.78
2024-03-12T16:26:30.083Z,9.77
2024-03-12T16:28:57.111Z,9.75
2024-03-12T16:31:24.410Z,9.74
2024-03-12T16:33:52.546Z,9.73
2024-03-12T16:36:19.656Z,9.71
2024-03-12T16:38:49.731Z,9.70
2024-03-12T16:41:17.050Z,9.71
2024-03-12T16:43:44.624Z,9.68
2024-03-12T16:46:12.000Z,9.71
2024-03-12T16:48:41.153Z,9.72
2024-03-12T16:51:08.550Z,9.73
2024-03-12T16:53:36.934Z,9.73
2024-03-12T16:56:04.250Z,9.71
2024-03-12T16:58:31.466Z,9.68
2024-03-12T17:01:03.596Z,9.65
2024-03-12T17:03:31.510Z,9.65
2024-03-12T17:05:59.045Z,9.65
2024-03-12T17:08:30.370Z,9.63
2024-03-12T17:10:57.573Z,9.61
2024-03-12T17:13:25.933Z,9.58
2024-03-12T17:15:55.195Z,9.55
2024-03-12T17:18:25.602Z,9.57
2024-03-12T17:20:55.889Z,9.57
2024-03-12T17:23:25.392Z,9.59
2024-03-12T17:25:57.072Z,9.59
2024-03-12T17:28:27.910Z,9.58
2024-03-12T17:30:55.793Z,9.57
2024-03-12T17:33:29.282Z,9.57
2024-03-12T17:35:57.189Z,9.56
2024-03-12T17:38:26.346Z,9.56
2024-03-12T17:40:59.595Z,9.56
2024-03-12T17:43:27.459Z,9.54
2024-03-12T17:45:55.202Z,9.53
2024-03-12T17:48:26.446Z,9.50
2024-03-12T17:50:53.885Z,9.51
2024-03-12T17:53:23.214Z,9.53
2024-03-12T17:55:52.949Z,9.57
2024-03-12T17:58:22.802Z,9.59
2024-03-12T18:00:51.616Z,9.61
2024-03-12T18:03:20.336Z,9.63
2024-03-12T18:05:47.601Z,9.63
2024-03-12T18:08:26.042Z,9.65
2024-03-12T18:10:57.108Z,9.65
2024-03-12T18:13:24.572Z,9.65
2024-03-12T18:15:53.159Z,9.64
2024-03-12T18:18:20.272Z,9.64
2024-03-12T18:20:47.740Z,9.63
2024-03-12T18:23:15.581Z,9.63
2024-03-12T18:25:42.753Z,9.62
2024-03-12T18:28:09.810Z,9.59
2024-03-12T18:30:37.828Z,9.59
2024-03-12T18:33:05.431Z,9.60
2024-03-12T18:35:32.524Z,9.63
2024-03-12T18:38:00.054Z,9.64
2024-03-12T18:40:27.387Z,9.65
2024-03-12T18:42:55.498Z,9.65
2024-03-12T18:45:24.803Z,9.64
2024-03-12T18:47:54.504Z,9.64
2024-03-12T18:50:29.187Z,9.62
2024-03-12T18:52:56.785Z,9.61
2024-03-12T18:55:24.764Z,9.59
2024-03-12T18:57:55.685Z,9.58
2024-03-12T19:00:31.353Z,9.57
2024-03-12T19:03:09.894Z,9.56
2024-03-12T19:05:37.034Z,9.54
2024-03-12T19:08:04.836Z,9.51
2024-03-12T19:10:32.418Z,9.52
2024-03-12T19:12:59.948Z,9.54
2024-03-12T19:15:34.510Z,9.58
2024-03-12T19:18:05.509Z,9.59
2024-03-12T19:20:33.370Z,9.59
2024-03-12T19:23:00.678Z,9.59
2024-03-12T19:25:27.895Z,9.60
2024-03-12T19:27:55.190Z,9.58
2024-03-12T19:30:25.960Z,9.57
2024-03-12T19:32:56.737Z,9.55
2024-03-12T19:35:23.859Z,9.52
2024-03-12T19:37:54.189Z,9.49
2024-03-12T19:40:23.064Z,9.45
2024-03-12T19:42:51.256Z,9.43
2024-03-12T19:45:21.236Z,9.40
2024-03-12T19:47:50.566Z,9.41
2024-03-12T19:50:21.385Z,9.43
2024-03-12T19:52:48.781Z,9.46
2024-03-12T19:55:20.597Z,9.49
2024-03-12T19:57:53.577Z,9.51
2024-03-12T20:00:33.256Z,9.50
2024-03-12T20:03:04.030Z,9.50
2024-03-12T20:05:33.340Z,9.49
2024-03-12T20:08:08.303Z,9.48
2024-03-12T20:10:38.464Z,9.47
2024-03-12T20:13:06.697Z,9.43
2024-03-12T20:15:34.475Z,9.38
2024-03-12T20:18:04.504Z,9.36
2024-03-12T20:20:31.666Z,9.35
2024-03-12T20:22:59.937Z,9.33
2024-03-12T20:25:27.814Z,9.30
2024-03-12T20:27:56.596Z,9.28
2024-03-12T20:30:31.286Z,9.26
2024-03-12T20:33:00.141Z,9.24
2024-03-12T20:35:31.547Z,9.22
2024-03-12T20:37:59.040Z,9.19
2024-03-12T20:40:27.108Z,9.20
2024-03-12T20:42:56.343Z,9.20
2024-03-12T20:45:23.932Z,9.18
2024-03-12T20:47:51.394Z,9.13
2024-03-12T20:50:21.880Z,9.10
2024-03-12T20:52:48.883Z,9.07
2024-03-12T20:55:16.359Z,9.05
2024-03-12T20:57:48.449Z,9.02
2024-03-12T21:00:27.910Z,9.00
2024-03-12T21:02:55.285Z,9.01
2024-03-12T21:05:22.542Z,9.01
2024-03-12T21:07:51.666Z,9.00
2024-03-12T21:10:20.321Z,8.98
2024-03-12T21:12:52.369Z,8.96
2024-03-12T21:15:20.299Z,8.94
2024-03-12T21:17:47.758Z,8.92
2024-03-12T21:20:23.279Z,8.89
2024-03-12T21:22:51.193Z,8.85
2024-03-12T21:25:20.103Z,8.85
2024-03-12T21:27:48.368Z,8.89
2024-03-12T21:30:20.232Z,8.90
2024-03-12T21:32:48.813Z,8.89
2024-03-12T21:35:17.181Z,8.87
2024-03-12T21:37:44.450Z,8.86
2024-03-12T21:40:12.829Z,8.83
2024-03-12T21:42:44.075Z,8.80
2024-03-12T21:45:11.459Z,8.76
2024-03-12T21:47:38.681Z,8.75
2024-03-12T21:50:10.227Z,8.77
2024-03-12T21:52:37.494Z,8.79
2024-03-12T21:55:07.525Z,8.79
2024-03-12T21:57:34.863Z,8.78
2024-03-12T22:00:02.153Z,8.77
2024-03-12T22:02:29.525Z,8.76
2024-03-12T22:04:56.779Z,8.75
2024-03-12T22:07:27.640Z,8.73
2024-03-12T22:09:54.735Z,8.71
2024-03-12T22:12:23.180Z,8.70
2024-03-12T22:14:50.484Z,8.69
2024-03-12T22:17:17.424Z,8.66
2024-03-12T22:19:44.614Z,8.67
2024-03-12T22:22:12.201Z,8.70
2024-03-12T22:24:39.210Z,8.73
2024-03-12T22:27:08.245Z,8.73
2024-03-12T22:29:35.181Z,8.72
2024-03-12T22:32:06.013Z,8.71
2024-03-12T22:34:35.029Z,8.69
2024-03-12T22:37:02.659Z,8.67
2024-03-12T22:39:32.171Z,8.65
2024-03-12T22:41:59.993Z,8.63
2024-03-12T22:44:27.254Z,8.61
2024-03-12T22:46:54.610Z,8.59
2024-03-12T22:49:21.897Z,8.59
2024-03-12T22:51:52.001Z,8.61
2024-03-12T22:54:21.866Z,8.66
2024-03-12T22:56:49.047Z,8.67
2024-03-12T22:59:16.241Z,8.67
2024-03-12T23:01:47.824Z,8.68
2024-03-12T23:04:18.128Z,8.69
2024-03-12T23:06:46.379Z,8.67
2024-03-12T23:09:15.024Z,8.66
2024-03-12T23:11:42.750Z,8.66
2024-03-12T23:14:10.834Z,8.65
2024-03-12T23:16:38.291Z,8.62
2024-03-12T23:19:06.165Z,8.62
2024-03-12T23:21:36.783Z,8.64
2024-03-12T23:24:05.154Z,8.65
2024-03-12T23:26:33.312Z,8.64
2024-03-12T23:29:00.224Z,8.64
2024-03-12T23:31:27.277Z,8.63
2024-03-12T23:33:56.168Z,8.62
2024-03-12T23:36:28.787Z,8.59
2024-03-12T23:38:56.299Z,8.57
2024-03-12T23:41:24.974Z,8.56
2024-03-12T23:43:54.246Z,8.54
2024-03-12T23:46:22.812Z,8.53
2024-03-12T23:48:50.200Z,8.56
2024-03-12T23:51:17.529Z,8.61
2024-03-12T23:53:44.736Z,8.63
2024-03-12T23:56:12.013Z,8.63
2024-03-12T23:58:39.899Z,8.63
